Time;durP1;ratioP1;P1;durP2;ratioP2;P2;SDS_P1;SDS_P2;PMS_P1;PMS_P2;Temp;Humidity;BMP_temperature;BMP_pressure;BME280_temperature;BME280_humidity;BME280_pressure;Samples;Min_cycle;Max_cycle;Signal;HPM_P1;HPM_P2
2021/10/31 00:01:15;;;;;;;4.07;3.05;;;11.50;99.90;;;;;;6075864;23;20082;-85
2021/10/31 00:04:03;;;;;;;3.95;3.55;;;11.50;99.90;;;;;;6092979;23;20162;-86
2021/10/31 00:06:50;;;;;;;4.32;3.55;;;11.40;99.90;;;;;;6074282;23;20382;-85
2021/10/31 00:09:38;;;;;;;4.80;3.50;;;11.30;99.90;;;;;;6095795;23;20031;-86
2021/10/31 00:12:25;;;;;;;4.30;3.38;;;11.30;99.90;;;;;;6095823;23;20070;-86
2021/10/31 00:15:13;;;;;;;4.53;3.50;;;11.30;99.90;;;;;;6096976;23;20034;-86
2021/10/31 00:18:03;;;;;;;4.93;3.08;;;11.30;99.90;;;;;;6095549;23;20037;-85
2021/10/31 00:20:50;;;;;;;4.63;3.85;;;11.30;99.90;;;;;;6074424;23;20102;-86
2021/10/31 00:23:37;;;;;;;5.05;3.92;;;11.30;99.90;;;;;;6094491;23;20114;-85
2021/10/31 00:26:29;;;;;;;4.45;3.58;;;11.40;99.90;;;;;;6076231;23;20030;-85
2021/10/31 00:29:19;;;;;;;3.65;3.22;;;11.40;99.90;;;;;;6093752;23;20022;-85
2021/10/31 00:32:11;;;;;;;3.90;3.20;;;11.40;99.90;;;;;;6074178;23;20061;-86
2021/10/31 00:34:58;;;;;;;3.47;3.17;;;11.40;99.90;;;;;;6075467;23;20058;-86
2021/10/31 00:37:45;;;;;;;3.88;3.25;;;11.40;99.90;;;;;;6075197;23;20026;-84
2021/10/31 00:40:33;;;;;;;6.18;3.40;;;11.20;99.90;;;;;;6095315;23;20109;-84
2021/10/31 00:43:20;;;;;;;6.20;3.83;;;11.30;99.90;;;;;;6085854;23;20283;-85
2021/10/31 00:46:08;;;;;;;4.47;3.40;;;11.20;99.90;;;;;;6071640;23;20145;-85
2021/10/31 00:48:55;;;;;;;4.53;3.42;;;11.10;99.90;;;;;;6094542;23;20102;-86
2021/10/31 00:51:42;;;;;;;4.05;3.15;;;11.10;99.90;;;;;;6073171;23;20122;-86
2021/10/31 00:54:33;;;;;;;4.00;3.05;;;11.00;99.90;;;;;;6073843;23;20054;-86
2021/10/31 00:57:21;;;;;;;4.95;3.70;;;11.00;99.90;;;;;;6094362;23;20034;-86
2021/10/31 01:00:10;;;;;;;5.28;3.22;;;11.00;99.90;;;;;;6094368;23;20034;-85
2021/10/31 01:02:57;;;;;;;10.82;3.97;;;11.00;99.90;;;;;;6095539;23;20430;-85
2021/10/31 01:05:49;;;;;;;4.68;3.53;;;11.00;99.90;;;;;;6096984;23;20030;-85
2021/10/31 01:08:49;;;;;;;5.63;3.03;;;10.90;99.90;;;;;;6094911;23;20375;-86
2021/10/31 01:12:01;;;;;;;4.50;3.13;;;10.90;99.90;;;;;;6095409;23;20093;-87
2021/10/31 01:15:15;;;;;;;7.15;3.92;;;10.80;99.90;;;;;;6097099;23;20182;-86
2021/10/31 01:18:27;;;;;;;5.63;3.53;;;10.80;99.90;;;;;;6074414;23;20061;-85
2021/10/31 01:21:42;;;;;;;4.47;3.10;;;10.80;99.90;;;;;;6094740;23;20030;-86
2021/10/31 01:24:33;;;;;;;5.22;3.25;;;10.90;99.90;;;;;;6094135;23;20052;-85
2021/10/31 01:28:40;;;;;;;4.82;3.47;;;10.90;99.90;;;;;;6096666;23;20022;-85
2021/10/31 01:32:09;;;;;;;4.68;3.85;;;11.00;99.90;;;;;;6097063;23;20031;-85
2021/10/31 01:35:22;;;;;;;5.07;4.00;;;11.00;99.90;;;;;;6094318;23;20320;-86
2021/10/31 01:38:31;;;;;;;6.57;4.25;;;10.90;99.90;;;;;;6094875;23;20438;-85
2021/10/31 01:41:49;;;;;;;4.10;3.70;;;10.70;99.90;;;;;;6095234;23;20433;-85
2021/10/31 01:45:00;;;;;;;7.05;3.83;;;10.70;99.90;;;;;;6074275;23;20117;-85
2021/10/31 01:48:07;;;;;;;5.22;3.92;;;10.60;99.90;;;;;;6093121;23;20029;-86
2021/10/31 01:51:02;;;;;;;4.10;3.65;;;10.50;99.90;;;;;;6097090;23;20030;-87
2021/10/31 01:53:58;;;;;;;7.43;4.22;;;10.40;99.90;;;;;;6094867;23;20038;-85
2021/10/31 01:56:51;;;;;;;5.00;4.18;;;10.30;99.90;;;;;;6093768;23;20113;-86
2021/10/31 01:59:44;;;;;;;4.97;3.78;;;10.40;99.90;;;;;;6093943;23;20475;-85
2021/10/31 02:02:37;;;;;;;3.70;3.25;;;10.40;99.90;;;;;;6095785;23;20030;-86
2021/10/31 02:05:27;;;;;;;5.82;3.67;;;10.40;99.90;;;;;;6094108;23;20026;-86
2021/10/31 02:08:19;;;;;;;4.32;3.78;;;10.40;99.90;;;;;;6071763;23;20049;-85
2021/10/31 02:11:10;;;;;;;4.35;3.90;;;10.50;99.90;;;;;;6073418;23;20074;-86
2021/10/31 02:13:59;;;;;;;4.20;3.45;;;10.50;99.90;;;;;;6096600;23;20027;-85
2021/10/31 02:16:49;;;;;;;5.13;3.53;;;10.60;99.90;;;;;;6110234;23;20030;-86
2021/10/31 02:19:44;;;;;;;5.72;3.72;;;10.50;99.90;;;;;;6106987;23;20346;-85
2021/10/31 02:22:35;;;;;;;4.38;3.55;;;10.60;99.90;;;;;;6108663;23;20034;-85
2021/10/31 02:25:25;;;;;;;4.78;3.50;;;10.50;99.90;;;;;;6091798;23;20145;-85
2021/10/31 02:28:14;;;;;;;4.40;3.58;;;10.60;99.90;;;;;;6114263;23;20041;-85
2021/10/31 02:31:02;;;;;;;4.38;3.40;;;10.60;99.90;;;;;;6104746;23;20415;-85
2021/10/31 02:33:50;;;;;;;6.15;3.60;;;10.60;99.90;;;;;;6085411;23;20065;-85
2021/10/31 02:36:38;;;;;;;6.63;4.00;;;10.60;99.90;;;;;;6108890;23;20407;-86
2021/10/31 02:39:25;;;;;;;5.07;3.65;;;10.50;99.90;;;;;;6098888;23;20022;-86
2021/10/31 02:42:15;;;;;;;7.65;4.00;;;10.40;99.90;;;;;;6074490;23;20027;-86
2021/10/31 02:45:04;;;;;;;8.23;4.10;;;10.20;99.90;;;;;;6075141;23;20078;-86
2021/10/31 02:47:56;;;;;;;3.75;3.35;;;10.10;99.90;;;;;;6093599;23;20042;-87
2021/10/31 02:50:45;;;;;;;5.13;4.18;;;10.10;99.90;;;;;;6095173;23;20554;-86
2021/10/31 02:54:01;;;;;;;5.75;4.57;;;10.10;99.90;;;;;;6098643;23;20034;-86
2021/10/31 02:57:20;;;;;;;5.35;4.10;;;10.10;99.90;;;;;;6064270;23;20534;-86
2021/10/31 03:00:10;;;;;;;6.35;3.50;;;10.10;99.90;;;;;;6093835;23;20114;-86
2021/10/31 03:02:59;;;;;;;7.75;4.75;;;10.10;99.90;;;;;;6095618;23;20026;-87
2021/10/31 03:05:52;;;;;;;4.95;4.03;;;10.10;99.90;;;;;;6094182;23;20034;-87
2021/10/31 03:08:39;;;;;;;6.20;4.38;;;10.00;99.90;;;;;;6096009;23;20054;-86
2021/10/31 03:11:27;;;;;;;6.95;4.88;;;9.80;99.90;;;;;;6093880;23;20054;-85
2021/10/31 03:14:14;;;;;;;5.60;4.18;;;9.70;99.90;;;;;;6075414;23;20038;-86
2021/10/31 03:17:02;;;;;;;9.02;4.63;;;9.60;99.90;;;;;;6073406;23;20094;-86
2021/10/31 03:19:50;;;;;;;7.95;4.95;;;9.50;99.90;;;;;;6073774;23;20090;-86
2021/10/31 03:22:37;;;;;;;8.57;5.10;;;9.40;99.90;;;;;;6074661;23;20086;-86
2021/10/31 03:25:27;;;;;;;7.38;5.30;;;9.40;99.90;;;;;;6070373;23;20325;-86
2021/10/31 03:28:14;;;;;;;6.30;4.85;;;9.30;99.90;;;;;;6096363;23;20054;-85
2021/10/31 03:31:01;;;;;;;6.95;4.93;;;9.20;99.90;;;;;;6076658;23;20023;-86
2021/10/31 03:33:50;;;;;;;6.65;5.07;;;9.10;99.90;;;;;;6057921;23;20166;-86
2021/10/31 03:36:37;;;;;;;7.82;5.63;;;9.10;99.90;;;;;;6096650;23;20054;-86
2021/10/31 03:39:28;;;;;;;6.95;5.10;;;9.00;99.90;;;;;;6096689;23;20171;-86
2021/10/31 03:42:17;;;;;;;8.65;5.60;;;9.00;99.90;;;;;;6096218;23;20161;-88
2021/10/31 03:45:06;;;;;;;9.05;5.88;;;9.00;99.90;;;;;;6056345;23;20026;-85
2021/10/31 03:47:54;;;;;;;8.10;5.43;;;9.00;99.90;;;;;;6096382;23;20030;-86
2021/10/31 03:50:41;;;;;;;7.22;6.07;;;9.00;99.90;;;;;;6076863;23;20022;-86
2021/10/31 03:53:33;;;;;;;7.93;5.95;;;9.20;99.90;;;;;;6075299;23;20030;-86
2021/10/31 03:56:20;;;;;;;8.17;5.73;;;9.20;99.90;;;;;;6094729;23;20383;-85
2021/10/31 03:59:07;;;;;;;8.90;5.93;;;9.30;99.90;;;;;;6055553;23;20321;-86
2021/10/31 04:01:54;;;;;;;7.05;5.78;;;9.30;99.90;;;;;;6072760;23;20129;-86
2021/10/31 04:04:42;;;;;;;7.50;5.60;;;9.10;99.90;;;;;;6095084;23;20101;-86
2021/10/31 04:07:32;;;;;;;8.98;6.53;;;8.90;99.90;;;;;;6057563;23;20034;-86
2021/10/31 04:10:22;;;;;;;9.18;7.00;;;8.60;99.90;;;;;;6097797;23;20082;-86
2021/10/31 04:13:10;;;;;;;9.40;6.50;;;8.50;99.90;;;;;;6077752;23;20408;-86
2021/10/31 04:16:00;;;;;;;12.93;7.30;;;8.40;99.90;;;;;;6076294;23;20031;-86
2021/10/31 04:18:48;;;;;;;10.13;7.55;;;8.30;99.90;;;;;;6093874;23;20151;-86
2021/10/31 04:21:35;;;;;;;12.07;8.43;;;8.40;99.90;;;;;;6094323;23;20133;-86
2021/10/31 04:24:23;;;;;;;10.32;7.70;;;8.40;99.90;;;;;;6095747;23;20332;-86
2021/10/31 04:27:10;;;;;;;14.35;7.07;;;8.40;99.90;;;;;;6096295;23;20486;-86
2021/10/31 04:29:59;;;;;;;9.73;7.68;;;8.50;99.90;;;;;;6074448;23;20026;-86
2021/10/31 04:32:48;;;;;;;10.85;6.78;;;8.60;99.90;;;;;;6073690;23;20106;-87
2021/10/31 04:35:35;;;;;;;9.50;7.28;;;8.70;99.90;;;;;;6056383;23;20093;-86
2021/10/31 04:38:27;;;;;;;9.88;7.20;;;8.80;99.90;;;;;;6095377;23;20038;-85
2021/10/31 04:41:14;;;;;;;10.23;7.10;;;9.00;99.90;;;;;;6096190;23;20026;-85
2021/10/31 04:44:02;;;;;;;11.55;7.15;;;9.20;99.90;;;;;;6097463;23;20109;-86
2021/10/31 04:46:54;;;;;;;8.45;6.82;;;9.10;99.90;;;;;;6075017;23;20637;-86
2021/10/31 04:49:44;;;;;;;8.23;6.25;;;9.00;99.90;;;;;;6096596;23;20113;-86
2021/10/31 04:52:32;;;;;;;11.65;7.35;;;9.00;99.90;;;;;;6096619;23;20085;-87
2021/10/31 04:55:22;;;;;;;11.27;7.10;;;9.00;99.90;;;;;;6077078;23;20085;-85
2021/10/31 04:58:11;;;;;;;9.55;6.75;;;9.10;99.90;;;;;;6096420;23;20054;-86
2021/10/31 05:01:01;;;;;;;9.48;6.40;;;9.30;99.90;;;;;;6076436;23;20022;-86
2021/10/31 05:03:51;;;;;;;8.32;6.22;;;9.40;99.90;;;;;;6076984;23;20393;-87
2021/10/31 05:06:40;;;;;;;8.15;6.35;;;9.40;99.90;;;;;;6096086;23;20042;-85
2021/10/31 05:09:27;;;;;;;7.88;6.63;;;9.40;99.90;;;;;;6073668;23;20034;-85
2021/10/31 05:12:18;;;;;;;8.13;6.38;;;9.50;99.90;;;;;;6072724;23;20030;-86
2021/10/31 05:15:06;;;;;;;7.75;5.82;;;9.60;99.90;;;;;;6077484;23;20121;-86
2021/10/31 05:17:56;;;;;;;11.02;6.13;;;9.60;99.90;;;;;;6078538;23;20077;-86
2021/10/31 05:20:45;;;;;;;8.57;5.97;;;9.50;99.90;;;;;;6096701;23;20344;-87
2021/10/31 05:23:33;;;;;;;9.10;6.35;;;9.50;99.90;;;;;;6089349;23;20022;-85
2021/10/31 05:26:24;;;;;;;7.53;5.95;;;9.60;99.90;;;;;;6096477;23;20105;-87
2021/10/31 05:29:15;;;;;;;7.13;5.85;;;9.60;99.90;;;;;;6077211;23;20057;-86
2021/10/31 05:32:05;;;;;;;8.82;6.07;;;9.60;99.90;;;;;;6075439;23;20027;-87
2021/10/31 05:34:54;;;;;;;8.25;6.15;;;9.50;99.90;;;;;;6077172;23;20347;-87
2021/10/31 05:37:44;;;;;;;6.40;5.30;;;9.40;99.90;;;;;;6077319;23;20027;-85
2021/10/31 05:40:32;;;;;;;7.78;4.90;;;9.30;99.90;;;;;;6097178;23;20030;-86
2021/10/31 05:43:20;;;;;;;8.55;5.18;;;9.20;99.90;;;;;;6076581;23;20089;-87
2021/10/31 05:46:12;;;;;;;13.75;4.78;;;9.10;99.90;;;;;;6102028;23;20030;-85
2021/10/31 05:49:05;;;;;;;8.80;5.07;;;9.00;99.90;;;;;;6080959;23;20093;-86
2021/10/31 05:51:53;;;;;;;;;;;8.80;99.90;;;;;;6097092;23;20058;-86
2021/10/31 05:54:42;;;;;;;9.02;5.70;;;8.70;99.90;;;;;;6097698;23;20368;-86
2021/10/31 05:57:30;;;;;;;8.13;5.18;;;8.60;99.90;;;;;;6076749;23;20113;-87
2021/10/31 06:00:18;;;;;;;8.18;5.75;;;8.50;99.90;;;;;;6094446;23;20090;-87
2021/10/31 06:03:08;;;;;;;8.45;6.13;;;8.40;99.90;;;;;;6095111;23;20050;-83
2021/10/31 06:05:59;;;;;;;9.10;6.75;;;8.40;99.90;;;;;;6053023;23;20030;-85
2021/10/31 06:08:47;;;;;;;13.13;6.47;;;8.50;99.90;;;;;;6053852;23;20033;-84
2021/10/31 06:11:37;;;;;;;7.90;5.95;;;8.70;99.90;;;;;;6055421;23;20031;-84
2021/10/31 06:14:25;;;;;;;12.10;6.78;;;8.70;99.90;;;;;;6046783;23;20133;-85
2021/10/31 06:17:24;;;;;;;12.20;6.95;;;8.60;99.90;;;;;;6073529;23;20061;-85
2021/10/31 06:21:02;;;;;;;10.02;6.20;;;8.50;99.90;;;;;;6071755;23;20034;-85
2021/10/31 06:23:51;;;;;;;10.85;7.22;;;8.40;99.90;;;;;;6019724;23;20034;-83
2021/10/31 06:26:44;;;;;;;9.68;7.18;;;8.50;99.90;;;;;;6072484;23;20402;-84
2021/10/31 06:29:34;;;;;;;7.70;5.93;;;8.50;99.90;;;;;;6074518;23;20385;-85
2021/10/31 06:32:21;;;;;;;11.90;6.80;;;8.40;99.90;;;;;;6093093;23;20113;-86
2021/10/31 06:35:09;;;;;;;9.38;6.88;;;8.30;99.90;;;;;;6095135;23;20488;-85
2021/10/31 06:38:01;;;;;;;9.07;6.88;;;8.40;99.90;;;;;;6072360;23;20066;-86
2021/10/31 06:40:48;;;;;;;10.75;7.90;;;8.40;99.90;;;;;;6075349;23;20094;-86
2021/10/31 06:43:36;;;;;;;9.85;6.78;;;8.40;99.90;;;;;;6073836;23;20031;-87
2021/10/31 06:46:29;;;;;;;10.05;7.22;;;8.40;99.90;;;;;;6074695;23;20026;-88
2021/10/31 06:49:16;;;;;;;8.25;6.95;;;8.50;99.90;;;;;;6076809;23;20026;-87
2021/10/31 06:52:04;;;;;;;10.95;7.35;;;8.50;99.90;;;;;;6056188;23;20037;-87
2021/10/31 06:54:52;;;;;;;10.25;7.25;;;8.60;99.90;;;;;;6098515;23;20034;-87
2021/10/31 06:57:40;;;;;;;8.77;6.28;;;8.80;99.90;;;;;;6075306;23;20426;-86
2021/10/31 07:00:28;;;;;;;6.93;5.82;;;9.10;99.90;;;;;;6097164;23;20030;-88
2021/10/31 07:03:16;;;;;;;7.88;5.95;;;9.40;99.90;;;;;;6056578;23;20117;-87
2021/10/31 07:06:04;;;;;;;6.40;5.18;;;9.70;99.90;;;;;;6098331;23;20042;-87
2021/10/31 07:08:52;;;;;;;6.97;4.97;;;10.00;99.90;;;;;;6098612;23;20095;-87
2021/10/31 07:11:42;;;;;;;6.47;4.35;;;10.40;99.90;;;;;;6097027;23;20050;-88
2021/10/31 07:14:32;;;;;;;6.93;4.38;;;10.80;99.90;;;;;;6079649;23;20030;-87
2021/10/31 07:17:19;;;;;;;5.93;4.10;;;11.20;99.90;;;;;;6095208;23;20312;-87
2021/10/31 07:20:10;;;;;;;6.07;3.92;;;11.60;99.90;;;;;;6096939;23;20121;-87
2021/10/31 07:22:58;;;;;;;4.95;4.32;;;11.60;99.90;;;;;;6095770;23;20027;-87
2021/10/31 07:25:45;;;;;;;6.68;5.22;;;11.40;99.90;;;;;;6075790;23;20081;-88
2021/10/31 07:28:35;;;;;;;5.25;4.43;;;11.40;99.90;;;;;;6074718;23;20077;-87
2021/10/31 07:31:24;;;;;;;5.95;3.88;;;11.40;99.90;;;;;;6077641;23;20030;-87
2021/10/31 07:34:14;;;;;;;7.53;4.80;;;11.60;99.90;;;;;;6098226;23;20094;-86
2021/10/31 07:37:03;;;;;;;5.32;4.00;;;11.80;99.90;;;;;;6097624;23;20031;-87
2021/10/31 07:39:55;;;;;;;4.63;4.18;;;11.90;99.90;;;;;;6099622;23;20038;-87
2021/10/31 07:42:43;;;;;;;7.57;4.15;;;12.10;99.90;;;;;;6081724;23;20030;-87
2021/10/31 07:45:51;;;;;;;5.88;3.75;;;12.30;99.90;;;;;;6084719;23;20069;-87
2021/10/31 07:48:38;;;;;;;6.10;4.15;;;12.60;99.90;;;;;;6083877;23;20026;-86
2021/10/31 07:51:28;;;;;;;4.95;3.60;;;12.70;99.90;;;;;;6077998;23;20117;-86
2021/10/31 07:54:22;;;;;;;6.88;4.18;;;12.90;99.90;;;;;;6099312;23;20106;-87
2021/10/31 07:57:09;;;;;;;;;;;13.20;99.90;;;;;;6100727;23;20038;-87
2021/10/31 07:59:58;;;;;;;5.28;3.97;;;13.40;99.90;;;;;;6097299;23;20281;-87
2021/10/31 08:02:46;;;;;;;8.07;4.15;;;13.50;99.90;;;;;;6076405;23;20052;-86
2021/10/31 08:05:37;;;;;;;5.20;4.45;;;13.40;99.90;;;;;;6097845;23;20037;-85
2021/10/31 08:08:28;;;;;;;6.50;4.25;;;13.30;99.90;;;;;;6090521;23;20022;-86
2021/10/31 08:11:15;;;;;;;5.75;4.20;;;13.30;99.90;;;;;;6100045;23;20026;-87
2021/10/31 08:14:04;;;;;;;5.65;4.30;;;13.50;99.90;;;;;;6079924;23;20030;-88
2021/10/31 08:16:52;;;;;;;4.13;3.60;;;13.80;99.90;;;;;;6079922;23;20050;-87
2021/10/31 08:19:40;;;;;;;6.25;3.78;;;14.20;99.90;;;;;;6105466;23;20098;-87
2021/10/31 08:22:27;;;;;;;4.75;4.18;;;14.60;99.90;;;;;;6105714;23;20098;-87
2021/10/31 08:25:15;;;;;;;7.97;4.25;;;14.80;99.90;;;;;;6086108;23;20026;-87
2021/10/31 08:36:32;;;;;;;3.60;3.22;;;15.00;99.90;;;;;;5954145;24;20021;-86
2021/10/31 08:39:20;;;;;;;3.05;2.70;;;15.70;99.90;;;;;;6052139;23;20022;-86
2021/10/31 08:42:08;;;;;;;3.03;2.40;;;16.50;99.90;;;;;;6096908;23;20026;-87
2021/10/31 08:44:56;;;;;;;4.55;2.65;;;17.30;99.90;;;;;;6073510;23;20022;-88
2021/10/31 08:47:43;;;;;;;3.33;2.70;;;17.40;99.90;;;;;;6091563;23;20423;-88
2021/10/31 08:50:31;;;;;;;5.45;2.75;;;17.70;99.90;;;;;;6075092;23;20433;-86
2021/10/31 08:53:19;;;;;;;5.15;3.63;;;17.60;99.90;;;;;;6093334;23;20045;-87
2021/10/31 08:56:13;;;;;;;3.80;2.80;;;18.00;99.90;;;;;;6091945;23;20030;-88
2021/10/31 08:59:01;;;;;;;3.78;3.15;;;18.40;99.90;;;;;;6086201;23;20057;-86
2021/10/31 09:01:49;;;;;;;3.50;3.08;;;18.70;99.90;;;;;;6106642;23;20050;-86
2021/10/31 09:04:39;;;;;;;4.18;2.80;;;19.00;99.90;;;;;;6107915;23;20061;-85
2021/10/31 09:07:27;;;;;;;4.13;3.10;;;18.90;99.90;;;;;;6108331;23;20026;-86
2021/10/31 09:10:14;;;;;;;3.67;2.88;;;19.40;99.90;;;;;;6097223;23;20014;-85
2021/10/31 09:13:02;;;;;;;4.65;2.97;;;19.70;99.90;;;;;;6108447;23;20030;-86
2021/10/31 09:15:51;;;;;;;3.13;2.55;;;19.80;99.60;;;;;;6084825;23;20030;-87
2021/10/31 09:18:39;;;;;;;3.95;2.60;;;20.40;97.90;;;;;;6087026;23;20042;-87
2021/10/31 09:21:28;;;;;;;2.97;2.55;;;21.20;94.70;;;;;;6082223;23;20061;-86
2021/10/31 09:24:15;;;;;;;2.88;2.30;;;21.20;94.00;;;;;;6075876;23;20342;-87
2021/10/31 09:27:03;;;;;;;2.97;2.30;;;21.70;91.60;;;;;;6093517;23;20026;-87
2021/10/31 09:29:55;;;;;;;;;;;22.00;91.10;;;;;;6075007;23;20033;-86
2021/10/31 09:32:45;;;;;;;1.70;1.60;;;22.80;86.80;;;;;;6094657;23;19924;-86
2021/10/31 09:35:42;;;;;;;3.13;0.95;;;23.50;80.20;;;;;;6054981;23;20044;-84
2021/10/31 09:38:31;;;;;;;1.13;1.02;;;23.50;76.70;;;;;;6075592;23;20097;-86
2021/10/31 09:41:19;;;;;;;1.40;1.25;;;23.30;77.70;;;;;;6094382;23;20026;-86
2021/10/31 09:44:17;;;;;;;1.33;0.68;;;23.60;74.70;;;;;;6096559;23;20026;-86
2021/10/31 09:47:05;;;;;;;1.00;0.85;;;24.00;70.60;;;;;;6074168;23;20631;-85
2021/10/31 09:49:55;;;;;;;1.92;1.10;;;23.30;72.00;;;;;;6096040;23;20026;-86
2021/10/31 09:52:44;;;;;;;2.78;0.70;;;23.20;73.80;;;;;;6095233;23;20723;-85
2021/10/31 09:55:32;;;;;;;1.33;0.80;;;23.50;71.80;;;;;;6073015;23;20038;-85
2021/10/31 09:58:24;;;;;;;0.70;0.70;;;23.80;69.60;;;;;;6094207;23;20034;-85
2021/10/31 10:01:36;;;;;;;1.40;0.63;;;23.20;69.10;;;;;;6054361;23;20062;-86
2021/10/31 10:04:26;;;;;;;1.15;0.95;;;23.50;67.40;;;;;;6072042;23;20022;-85
2021/10/31 10:07:15;;;;;;;1.90;1.00;;;23.70;66.30;;;;;;6073586;23;20037;-86
2021/10/31 10:10:10;;;;;;;1.77;0.80;;;23.30;65.50;;;;;;6093478;23;20106;-86
2021/10/31 10:13:19;;;;;;;1.15;0.90;;;23.50;64.60;;;;;;6095872;23;20030;-86
2021/10/31 10:16:27;;;;;;;1.20;0.80;;;23.90;64.20;;;;;;6095200;23;20030;-85
2021/10/31 10:19:18;;;;;;;1.00;0.70;;;24.10;61.40;;;;;;6098999;23;20030;-87
2021/10/31 10:22:13;;;;;;;1.15;0.85;;;24.70;60.30;;;;;;6095884;23;20097;-86
2021/10/31 10:25:04;;;;;;;4.43;0.95;;;24.40;59.60;;;;;;6095829;23;20036;-85
2021/10/31 10:27:55;;;;;;;2.22;0.93;;;25.00;59.00;;;;;;6093061;23;20398;-86
2021/10/31 10:30:42;;;;;;;1.30;1.20;;;24.90;59.50;;;;;;6071413;23;20038;-86
2021/10/31 10:33:29;;;;;;;1.92;1.25;;;24.70;57.30;;;;;;6056546;23;20034;-86
2021/10/31 10:36:17;;;;;;;0.80;0.70;;;24.30;59.10;;;;;;6075393;23;20450;-85
2021/10/31 10:39:08;;;;;;;1.88;1.10;;;25.40;55.70;;;;;;6096830;23;20302;-85
2021/10/31 10:41:58;;;;;;;0.98;0.90;;;25.70;55.10;;;;;;6074785;23;20126;-86
2021/10/31 10:44:47;;;;;;;0.80;0.80;;;25.90;53.60;;;;;;6094455;23;20118;-85
2021/10/31 10:47:48;;;;;;;1.05;0.90;;;26.00;52.60;;;;;;6097178;23;20031;-86
2021/10/31 10:50:43;;;;;;;1.17;0.60;;;26.20;51.30;;;;;;6097753;23;20022;-85
2021/10/31 10:53:31;;;;;;;1.92;0.77;;;25.80;51.60;;;;;;6094635;23;20053;-86
2021/10/31 10:56:19;;;;;;;1.42;1.25;;;25.90;52.50;;;;;;6079248;23;20051;-85
2021/10/31 10:59:10;;;;;;;1.23;0.80;;;26.50;50.30;;;;;;6054386;23;20090;-87
2021/10/31 11:02:11;;;;;;;1.08;0.98;;;26.80;48.00;;;;;;6073502;23;20462;-86
2021/10/31 11:05:06;;;;;;;0.90;0.90;;;26.80;48.90;;;;;;6096371;23;20107;-86
2021/10/31 11:07:57;;;;;;;0.82;0.82;;;27.30;46.40;;;;;;6094116;23;20094;-86
2021/10/31 11:10:49;;;;;;;1.70;1.02;;;27.60;46.80;;;;;;6094543;23;20034;-88
2021/10/31 11:13:48;;;;;;;1.75;0.88;;;27.80;46.10;;;;;;6095983;23;20093;-87
2021/10/31 11:16:38;;;;;;;2.95;0.90;;;28.30;44.90;;;;;;6080365;23;20026;-87
2021/10/31 11:19:30;;;;;;;0.55;0.55;;;29.20;42.60;;;;;;6080837;23;20030;-87
2021/10/31 11:22:26;;;;;;;2.30;0.80;;;29.70;41.00;;;;;;6095654;23;20034;-87
2021/10/31 11:25:16;;;;;;;1.13;0.80;;;29.50;40.10;;;;;;6095536;23;20022;-87
2021/10/31 11:28:06;;;;;;;0.82;0.68;;;29.00;41.30;;;;;;6094069;23;20050;-87
2021/10/31 11:31:02;;;;;;;2.80;0.70;;;29.30;40.00;;;;;;6095328;23;20482;-87
2021/10/31 11:33:50;;;;;;;0.75;0.70;;;29.40;40.10;;;;;;6058846;23;20106;-86
2021/10/31 11:36:38;;;;;;;0.93;0.63;;;28.90;40.00;;;;;;6097019;23;20034;-86
2021/10/31 11:39:33;;;;;;;2.05;0.95;;;29.10;40.00;;;;;;6060474;23;20626;-88
2021/10/31 11:42:22;;;;;;;1.25;0.90;;;29.40;39.60;;;;;;6097264;23;20026;-87
2021/10/31 11:45:18;;;;;;;2.35;1.70;;;29.70;38.10;;;;;;6096591;23;20395;-86
2021/10/31 11:48:14;;;;;;;4.13;0.93;;;29.80;39.00;;;;;;6076968;23;20027;-86
2021/10/31 11:51:01;;;;;;;2.28;0.60;;;30.70;35.50;;;;;;6096841;23;20125;-86
2021/10/31 11:53:49;;;;;;;2.33;0.75;;;29.60;35.40;;;;;;6099149;23;20124;-86
2021/10/31 12:00:14;;;;;;;1.33;0.82;;;29.30;37.50;;;;;;6081595;23;20121;-85
2021/10/31 12:03:09;;;;;;;1.52;1.00;;;29.50;35.90;;;;;;6076286;23;20054;-86
2021/10/31 12:06:23;;;;;;;1.00;0.73;;;29.40;36.50;;;;;;6077445;23;20450;-88
2021/10/31 12:09:23;;;;;;;1.40;0.70;;;30.00;35.10;;;;;;6078355;23;20040;-87
2021/10/31 12:12:13;;;;;;;0.60;0.60;;;30.20;33.70;;;;;;6097604;23;20026;-88
2021/10/31 12:15:03;;;;;;;0.93;0.73;;;30.50;33.90;;;;;;6099287;23;20030;-86
2021/10/31 12:18:04;;;;;;;0.77;0.77;;;30.70;33.10;;;;;;6057091;23;20030;-86
2021/10/31 12:20:54;;;;;;;1.05;0.80;;;31.00;34.10;;;;;;6097837;23;20030;-86
2021/10/31 12:23:58;;;;;;;0.82;0.70;;;30.30;32.80;;;;;;6096543;23;20045;-86
2021/10/31 12:27:14;;;;;;;;;;;30.30;32.80;;;;;;6082245;23;20098;-86
2021/10/31 12:30:13;;;;;;;1.67;0.60;;;29.60;36.00;;;;;;6099303;23;19957;-87
2021/10/31 12:33:06;;;;;;;3.65;1.13;;;29.90;34.50;;;;;;6097777;23;20054;-86
2021/10/31 12:35:56;;;;;;;0.60;0.50;;;30.40;33.80;;;;;;6098053;23;20113;-88
2021/10/31 12:38:44;;;;;;;0.88;0.70;;;30.90;32.80;;;;;;6098299;23;20034;-87
2021/10/31 12:41:34;;;;;;;1.13;0.80;;;30.70;33.70;;;;;;6075441;23;20035;-87
2021/10/31 12:44:22;;;;;;;1.13;0.93;;;30.00;34.70;;;;;;6094771;23;20026;-86
2021/10/31 12:47:14;;;;;;;1.52;0.88;;;30.00;33.90;;;;;;6095760;23;20041;-87
2021/10/31 12:50:20;;;;;;;1.98;0.90;;;29.90;34.10;;;;;;6095808;23;20414;-86
2021/10/31 12:53:13;;;;;;;2.10;0.90;;;29.20;34.90;;;;;;6096039;23;20037;-86
2021/10/31 12:56:02;;;;;;;;;;;28.70;35.90;;;;;;6096201;23;20162;-88
2021/10/31 12:59:04;;;;;;;1.10;0.85;;;28.40;36.20;;;;;;6076022;23;19944;-86
2021/10/31 13:02:07;;;;;;;2.20;1.33;;;28.30;36.50;;;;;;6096625;23;20041;-87
2021/10/31 13:04:58;;;;;;;1.63;1.15;;;27.70;36.30;;;;;;6073831;23;20033;-85
2021/10/31 13:07:55;;;;;;;2.58;1.45;;;27.50;38.30;;;;;;6095541;23;20037;-86
2021/10/31 13:10:49;;;;;;;1.00;1.00;;;27.60;37.50;;;;;;6074704;23;20034;-86
2021/10/31 13:13:36;;;;;;;1.38;0.88;;;27.10;38.20;;;;;;6073172;23;20037;-86
2021/10/31 13:16:24;;;;;;;2.30;1.08;;;26.80;38.50;;;;;;6096331;23;20026;-85
2021/10/31 13:19:12;;;;;;;1.77;1.10;;;26.30;39.80;;;;;;6098079;23;20089;-86
2021/10/31 13:22:03;;;;;;;1.13;1.00;;;26.10;40.00;;;;;;6075420;23;20052;-88
2021/10/31 13:24:56;;;;;;;2.90;1.10;;;26.40;40.90;;;;;;6096055;23;20101;-85
2021/10/31 13:27:47;;;;;;;2.90;1.23;;;26.30;39.90;;;;;;6096978;23;20279;-86
2021/10/31 13:30:35;;;;;;;3.90;1.35;;;26.60;39.40;;;;;;6093715;23;20053;-85
2021/10/31 13:33:52;;;;;;;2.70;1.35;;;26.50;39.50;;;;;;6075219;23;20033;-86
2021/10/31 13:36:40;;;;;;;1.75;1.00;;;26.50;39.70;;;;;;6075740;23;20030;-86
2021/10/31 13:39:28;;;;;;;1.35;1.02;;;27.20;40.80;;;;;;6056051;23;20026;-87
2021/10/31 13:42:32;;;;;;;1.52;1.08;;;28.20;36.70;;;;;;6074770;23;20038;-84
2021/10/31 13:45:22;;;;;;;1.10;1.00;;;28.60;37.60;;;;;;6075987;23;20054;-86
2021/10/31 13:48:34;;;;;;;2.30;1.15;;;29.00;36.70;;;;;;6075044;23;20037;-85
2021/10/31 13:51:25;;;;;;;2.78;1.02;;;29.70;34.90;;;;;;6096049;23;20454;-87
2021/10/31 13:54:16;;;;;;;1.13;1.00;;;30.10;35.00;;;;;;6092583;23;20026;-87
2021/10/31 13:57:04;;;;;;;1.60;1.02;;;29.80;33.90;;;;;;6095218;23;20041;-87
2021/10/31 13:59:55;;;;;;;1.27;1.17;;;28.20;37.00;;;;;;6094098;23;20030;-86
2021/10/31 14:02:42;;;;;;;1.23;1.10;;;27.00;39.40;;;;;;6074685;23;20057;-87
2021/10/31 14:05:32;;;;;;;1.75;1.08;;;26.50;40.90;;;;;;6073471;23;20030;-86
2021/10/31 14:08:22;;;;;;;4.03;1.05;;;26.80;41.40;;;;;;6094356;23;20023;-88
2021/10/31 14:11:14;;;;;;;1.30;1.10;;;28.10;38.30;;;;;;6074206;23;20082;-87
2021/10/31 14:14:01;;;;;;;2.42;1.00;;;29.00;36.30;;;;;;6094993;23;20162;-87
2021/10/31 14:16:49;;;;;;;1.70;1.20;;;28.90;35.70;;;;;;6093145;23;20026;-86
2021/10/31 14:19:43;;;;;;;3.92;1.20;;;28.80;36.30;;;;;;6074835;23;20110;-86
2021/10/31 14:22:49;;;;;;;2.45;1.25;;;27.90;36.90;;;;;;6076224;23;20098;-86
2021/10/31 14:25:44;;;;;;;1.95;1.10;;;27.10;38.80;;;;;;6093604;23;20303;-87
2021/10/31 14:28:35;;;;;;;1.67;1.30;;;26.80;41.80;;;;;;6095929;23;20053;-87
2021/10/31 14:31:34;;;;;;;2.78;1.23;;;26.40;39.80;;;;;;6094095;23;20652;-87
2021/10/31 14:34:25;;;;;;;1.10;1.00;;;26.20;40.50;;;;;;6075579;23;20353;-86
2021/10/31 14:37:16;;;;;;;3.15;1.30;;;26.20;39.70;;;;;;6095602;23;20034;-85
2021/10/31 14:40:23;;;;;;;1.13;1.00;;;26.40;39.60;;;;;;6096136;23;20033;-87
2021/10/31 14:43:23;;;;;;;1.52;1.08;;;26.20;40.50;;;;;;6095985;23;20023;-88
2021/10/31 14:46:14;;;;;;;2.38;1.30;;;26.00;41.20;;;;;;6094454;23;20030;-86
2021/10/31 14:49:09;;;;;;;1.77;1.10;;;25.70;41.40;;;;;;6097273;23;20387;-88
2021/10/31 14:52:05;;;;;;;1.58;1.30;;;25.70;41.30;;;;;;6055919;23;20042;-86
2021/10/31 14:54:54;;;;;;;1.35;1.17;;;25.50;42.10;;;;;;6096489;23;20034;-87
2021/10/31 14:57:45;;;;;;;2.25;1.10;;;25.10;42.80;;;;;;6118375;23;20033;-85
2021/10/31 15:00:33;;;;;;;2.78;1.38;;;24.50;44.30;;;;;;6087014;23;20109;-87
2021/10/31 15:03:21;;;;;;;2.33;1.30;;;23.70;46.50;;;;;;6107241;23;20026;-85
2021/10/31 15:06:11;;;;;;;2.00;1.20;;;22.80;47.80;;;;;;6069150;23;20032;-86
2021/10/31 15:08:59;;;;;;;1.30;1.20;;;21.80;50.10;;;;;;6085180;23;20051;-86
2021/10/31 15:11:46;;;;;;;2.58;1.13;;;20.80;52.10;;;;;;6077036;23;20040;-86